sensor_id;sensor_type;location;lat;lon;timestamp;P1;durP1;ratioP1;P2;durP2;ratioP2
4794;SDS011;2411;47.060;15.064;2024-03-17T00:02:22;0.50;;;0.50;;
4794;SDS011;2411;47.060;15.064;2024-03-17T00:04:48;0.70;;;0.50;;
4794;SDS011;2411;47.060;15.064;2024-03-17T00:07:14;0.67;;;0.60;;
4794;SDS011;2411;47.060;15.064;2024-03-17T00:09:41;0.53;;;0.50;;
4794;SDS011;2411;47.060;15.064;2024-03-17T00:12:10;0.60;;;0.50;;
4794;SDS011;2411;47.060;15.064;2024-03-17T00:14:36;0.40;;;0.40;;
4794;SDS011;2411;47.060;15.064;2024-03-17T00:17:04;1.43;;;0.57;;
4794;SDS011;2411;47.060;15.064;2024-03-17T00:19:30;0.60;;;0.60;;
4794;SDS011;2411;47.060;15.064;2024-03-17T00:21:56;0.97;;;0.60;;
4794;SDS011;2411;47.060;15.064;2024-03-17T00:24:22;0.70;;;0.60;;
4794;SDS011;2411;47.060;15.064;2024-03-17T00:26:48;0.60;;;0.60;;
4794;SDS011;2411;47.060;15.064;2024-03-17T00:29:16;0.60;;;0.60;;
4794;SDS011;2411;47.060;15.064;2024-03-17T00:31:42;2.50;;;0.50;;
4794;SDS011;2411;47.060;15.064;2024-03-17T00:34:08;1.60;;;0.50;;
4794;SDS011;2411;47.060;15.064;2024-03-17T00:36:35;0.50;;;0.50;;
4794;SDS011;2411;47.060;15.064;2024-03-17T00:39:01;0.70;;;0.53;;
4794;SDS011;2411;47.060;15.064;2024-03-17T00:41:28;0.50;;;0.50;;
4794;SDS011;2411;47.060;15.064;2024-03-17T00:43:55;0.50;;;0.50;;
4794;SDS011;2411;47.060;15.064;2024-03-17T00:46:21;0.67;;;0.67;;
4794;SDS011;2411;47.060;15.064;2024-03-17T00:48:48;0.67;;;0.67;;
4794;SDS011;2411;47.060;15.064;2024-03-17T00:51:14;0.63;;;0.63;;
4794;SDS011;2411;47.060;15.064;2024-03-17T00:53:41;0.50;;;0.50;;
4794;SDS011;2411;47.060;15.064;2024-03-17T00:56:07;1.70;;;0.53;;
4794;SDS011;2411;47.060;15.064;2024-03-17T00:58:34;0.50;;;0.50;;
4794;SDS011;2411;47.060;15.064;2024-03-17T01:01:00;0.70;;;0.63;;
4794;SDS011;2411;47.060;15.064;2024-03-17T01:03:26;0.60;;;0.60;;
4794;SDS011;2411;47.060;15.064;2024-03-17T01:05:55;0.60;;;0.60;;
4794;SDS011;2411;47.060;15.064;2024-03-17T01:08:21;0.60;;;0.60;;
4794;SDS011;2411;47.060;15.064;2024-03-17T01:10:47;0.57;;;0.57;;
4794;SDS011;2411;47.060;15.064;2024-03-17T01:13:15;0.70;;;0.70;;
4794;SDS011;2411;47.060;15.064;2024-03-17T01:15:42;0.60;;;0.60;;
4794;SDS011;2411;47.060;15.064;2024-03-17T01:18:08;0.50;;;0.50;;
4794;SDS011;2411;47.060;15.064;2024-03-17T01:20:34;0.50;;;0.50;;
4794;SDS011;2411;47.060;15.064;2024-03-17T01:23:03;1.57;;;0.60;;
4794;SDS011;2411;47.060;15.064;2024-03-17T01:25:29;2.10;;;0.60;;
4794;SDS011;2411;47.060;15.064;2024-03-17T01:27:56;0.60;;;0.53;;
4794;SDS011;2411;47.060;15.064;2024-03-17T01:30:22;0.70;;;0.70;;
4794;SDS011;2411;47.060;15.064;2024-03-17T01:32:49;1.10;;;1.00;;
4794;SDS011;2411;47.060;15.064;2024-03-17T01:35:17;3.20;;;0.70;;
4794;SDS011;2411;47.060;15.064;2024-03-17T01:37:43;1.13;;;0.90;;
4794;SDS011;2411;47.060;15.064;2024-03-17T01:40:09;0.60;;;0.60;;
4794;SDS011;2411;47.060;15.064;2024-03-17T01:42:36;0.80;;;0.80;;
4794;SDS011;2411;47.060;15.064;2024-03-17T01:45:18;0.57;;;0.57;;
4794;SDS011;2411;47.060;15.064;2024-03-17T01:47:46;1.53;;;0.67;;
4794;SDS011;2411;47.060;15.064;2024-03-17T01:50:12;0.50;;;0.50;;
4794;SDS011;2411;47.060;15.064;2024-03-17T01:52:38;0.43;;;0.43;;
4794;SDS011;2411;47.060;15.064;2024-03-17T01:55:05;0.50;;;0.50;;
4794;SDS011;2411;47.060;15.064;2024-03-17T01:57:32;0.70;;;0.70;;
4794;SDS011;2411;47.060;15.064;2024-03-17T01:59:58;0.50;;;0.50;;
4794;SDS011;2411;47.060;15.064;2024-03-17T02:02:25;1.07;;;0.77;;
4794;SDS011;2411;47.060;15.064;2024-03-17T02:04:51;1.07;;;0.60;;
4794;SDS011;2411;47.060;15.064;2024-03-17T02:07:18;4.67;;;1.73;;
4794;SDS011;2411;47.060;15.064;2024-03-17T02:09:44;0.50;;;0.50;;
4794;SDS011;2411;47.060;15.064;2024-03-17T02:12:10;0.50;;;0.50;;
4794;SDS011;2411;47.060;15.064;2024-03-17T02:14:37;0.60;;;0.60;;
4794;SDS011;2411;47.060;15.064;2024-03-17T02:17:03;0.70;;;0.70;;
4794;SDS011;2411;47.060;15.064;2024-03-17T02:19:29;0.70;;;0.70;;
4794;SDS011;2411;47.060;15.064;2024-03-17T02:21:56;0.70;;;0.70;;
4794;SDS011;2411;47.060;15.064;2024-03-17T02:24:22;0.60;;;0.60;;
4794;SDS011;2411;47.060;15.064;2024-03-17T02:26:48;0.70;;;0.70;;
4794;SDS011;2411;47.060;15.064;2024-03-17T02:29:14;0.60;;;0.60;;
4794;SDS011;2411;47.060;15.064;2024-03-17T02:31:40;0.60;;;0.60;;
4794;SDS011;2411;47.060;15.064;2024-03-17T02:34:06;0.50;;;0.50;;
4794;SDS011;2411;47.060;15.064;2024-03-17T02:36:32;0.70;;;0.70;;
4794;SDS011;2411;47.060;15.064;2024-03-17T02:38:58;2.53;;;1.10;;
4794;SDS011;2411;47.060;15.064;2024-03-17T02:41:43;0.50;;;0.50;;
4794;SDS011;2411;47.060;15.064;2024-03-17T02:44:11;0.53;;;0.50;;
4794;SDS011;2411;47.060;15.064;2024-03-17T02:46:37;0.40;;;0.40;;
4794;SDS011;2411;47.060;15.064;2024-03-17T02:49:03;0.50;;;0.50;;
4794;SDS011;2411;47.060;15.064;2024-03-17T02:51:30;0.50;;;0.50;;
4794;SDS011;2411;47.060;15.064;2024-03-17T02:53:56;0.60;;;0.60;;
4794;SDS011;2411;47.060;15.064;2024-03-17T02:56:24;0.60;;;0.60;;
4794;SDS011;2411;47.060;15.064;2024-03-17T02:58:51;0.80;;;0.60;;
4794;SDS011;2411;47.060;15.064;2024-03-17T03:01:17;0.50;;;0.50;;
4794;SDS011;2411;47.060;15.064;2024-03-17T03:03:44;0.40;;;0.40;;
4794;SDS011;2411;47.060;15.064;2024-03-17T03:06:10;0.40;;;0.40;;
4794;SDS011;2411;47.060;15.064;2024-03-17T03:08:41;0.50;;;0.50;;
4794;SDS011;2411;47.060;15.064;2024-03-17T03:11:08;0.50;;;0.50;;
4794;SDS011;2411;47.060;15.064;2024-03-17T03:13:39;0.40;;;0.40;;
4794;SDS011;2411;47.060;15.064;2024-03-17T03:16:10;0.47;;;0.47;;
4794;SDS011;2411;47.060;15.064;2024-03-17T03:18:38;1.80;;;0.50;;
4794;SDS011;2411;47.060;15.064;2024-03-17T03:21:04;1.87;;;0.70;;
4794;SDS011;2411;47.060;15.064;2024-03-17T03:23:31;0.50;;;0.50;;
4794;SDS011;2411;47.060;15.064;2024-03-17T03:25:58;0.50;;;0.50;;
4794;SDS011;2411;47.060;15.064;2024-03-17T03:28:25;0.60;;;0.60;;
4794;SDS011;2411;47.060;15.064;2024-03-17T03:30:52;0.60;;;0.60;;
4794;SDS011;2411;47.060;15.064;2024-03-17T03:33:18;0.60;;;0.60;;
4794;SDS011;2411;47.060;15.064;2024-03-17T03:35:45;0.50;;;0.50;;
4794;SDS011;2411;47.060;15.064;2024-03-17T03:38:11;0.60;;;0.60;;
4794;SDS011;2411;47.060;15.064;2024-03-17T03:40:39;0.70;;;0.50;;
4794;SDS011;2411;47.060;15.064;2024-03-17T03:43:09;0.87;;;0.80;;
4794;SDS011;2411;47.060;15.064;2024-03-17T03:45:36;0.40;;;0.40;;
4794;SDS011;2411;47.060;15.064;2024-03-17T03:48:03;0.93;;;0.50;;
4794;SDS011;2411;47.060;15.064;2024-03-17T03:50:29;0.50;;;0.50;;
4794;SDS011;2411;47.060;15.064;2024-03-17T03:52:56;0.50;;;0.50;;
4794;SDS011;2411;47.060;15.064;2024-03-17T03:55:22;0.60;;;0.60;;
4794;SDS011;2411;47.060;15.064;2024-03-17T03:57:49;0.40;;;0.40;;
4794;SDS011;2411;47.060;15.064;2024-03-17T04:00:18;0.80;;;0.50;;
4794;SDS011;2411;47.060;15.064;2024-03-17T04:02:49;0.50;;;0.50;;
4794;SDS011;2411;47.060;15.064;2024-03-17T04:05:17;1.07;;;0.60;;
4794;SDS011;2411;47.060;15.064;2024-03-17T04:07:46;0.43;;;0.43;;
4794;SDS011;2411;47.060;15.064;2024-03-17T04:10:14;0.50;;;0.50;;
4794;SDS011;2411;47.060;15.064;2024-03-17T04:12:44;0.50;;;0.50;;
4794;SDS011;2411;47.060;15.064;2024-03-17T04:15:10;0.50;;;0.50;;
4794;SDS011;2411;47.060;15.064;2024-03-17T04:17:36;0.50;;;0.50;;
4794;SDS011;2411;47.060;15.064;2024-03-17T04:20:03;0.50;;;0.50;;
4794;SDS011;2411;47.060;15.064;2024-03-17T04:22:33;0.50;;;0.50;;
4794;SDS011;2411;47.060;15.064;2024-03-17T04:25:00;0.40;;;0.40;;
4794;SDS011;2411;47.060;15.064;2024-03-17T04:27:26;0.50;;;0.50;;
4794;SDS011;2411;47.060;15.064;2024-03-17T04:29:54;0.40;;;0.40;;
4794;SDS011;2411;47.060;15.064;2024-03-17T04:32:21;0.50;;;0.50;;
4794;SDS011;2411;47.060;15.064;2024-03-17T04:34:48;0.50;;;0.40;;
4794;SDS011;2411;47.060;15.064;2024-03-17T04:37:14;0.43;;;0.43;;
4794;SDS011;2411;47.060;15.064;2024-03-17T04:39:41;0.50;;;0.50;;
4794;SDS011;2411;47.060;15.064;2024-03-17T04:42:11;0.50;;;0.50;;
4794;SDS011;2411;47.060;15.064;2024-03-17T04:44:42;1.07;;;0.50;;
4794;SDS011;2411;47.060;15.064;2024-03-17T04:47:09;3.80;;;0.50;;
4794;SDS011;2411;47.060;15.064;2024-03-17T04:52:02;0.50;;;0.50;;
4794;SDS011;2411;47.060;15.064;2024-03-17T04:54:29;0.50;;;0.50;;
4794;SDS011;2411;47.060;15.064;2024-03-17T04:57:00;0.63;;;0.63;;
4794;SDS011;2411;47.060;15.064;2024-03-17T04:59:26;0.40;;;0.40;;
4794;SDS011;2411;47.060;15.064;2024-03-17T05:01:52;0.60;;;0.60;;
4794;SDS011;2411;47.060;15.064;2024-03-17T05:04:19;0.50;;;0.50;;
4794;SDS011;2411;47.060;15.064;2024-03-17T05:06:45;0.50;;;0.50;;
4794;SDS011;2411;47.060;15.064;2024-03-17T05:09:14;1.33;;;1.23;;
4794;SDS011;2411;47.060;15.064;2024-03-17T05:11:44;0.70;;;0.70;;
4794;SDS011;2411;47.060;15.064;2024-03-17T05:14:10;0.60;;;0.60;;
4794;SDS011;2411;47.060;15.064;2024-03-17T05:16:37;0.50;;;0.50;;
4794;SDS011;2411;47.060;15.064;2024-03-17T05:19:03;1.73;;;0.50;;
4794;SDS011;2411;47.060;15.064;2024-03-17T05:21:30;0.50;;;0.50;;
4794;SDS011;2411;47.060;15.064;2024-03-17T05:23:56;0.80;;;0.80;;
4794;SDS011;2411;47.060;15.064;2024-03-17T05:26:23;2.50;;;0.80;;
4794;SDS011;2411;47.060;15.064;2024-03-17T05:28:50;0.80;;;0.70;;
4794;SDS011;2411;47.060;15.064;2024-03-17T05:31:16;0.90;;;0.90;;
4794;SDS011;2411;47.060;15.064;2024-03-17T05:33:46;0.77;;;0.77;;
4794;SDS011;2411;47.060;15.064;2024-03-17T05:36:12;0.93;;;0.77;;
4794;SDS011;2411;47.060;15.064;2024-03-17T05:38:39;0.97;;;0.83;;
4794;SDS011;2411;47.060;15.064;2024-03-17T05:41:06;1.30;;;1.20;;
4794;SDS011;2411;47.060;15.064;2024-03-17T05:43:34;0.80;;;0.80;;
4794;SDS011;2411;47.060;15.064;2024-03-17T05:46:02;0.70;;;0.70;;
4794;SDS011;2411;47.060;15.064;2024-03-17T05:48:34;1.00;;;1.00;;
4794;SDS011;2411;47.060;15.064;2024-03-17T05:51:08;2.20;;;0.87;;
4794;SDS011;2411;47.060;15.064;2024-03-17T05:53:37;0.90;;;0.90;;
4794;SDS011;2411;47.060;15.064;2024-03-17T05:56:05;0.80;;;0.80;;
4794;SDS011;2411;47.060;15.064;2024-03-17T05:58:36;0.80;;;0.80;;
4794;SDS011;2411;47.060;15.064;2024-03-17T06:01:03;0.80;;;0.80;;
4794;SDS011;2411;47.060;15.064;2024-03-17T06:03:32;1.37;;;1.10;;
4794;SDS011;2411;47.060;15.064;2024-03-17T06:06:01;1.13;;;0.90;;
4794;SDS011;2411;47.060;15.064;2024-03-17T06:08:28;3.97;;;0.80;;
4794;SDS011;2411;47.060;15.064;2024-03-17T06:10:55;0.93;;;0.83;;
4794;SDS011;2411;47.060;15.064;2024-03-17T06:13:28;0.80;;;0.80;;
4794;SDS011;2411;47.060;15.064;2024-03-17T06:15:54;0.97;;;0.87;;
4794;SDS011;2411;47.060;15.064;2024-03-17T06:18:25;0.70;;;0.70;;
4794;SDS011;2411;47.060;15.064;2024-03-17T06:20:52;0.60;;;0.60;;
4794;SDS011;2411;47.060;15.064;2024-03-17T06:23:19;0.60;;;0.60;;
4794;SDS011;2411;47.060;15.064;2024-03-17T06:25:46;0.77;;;0.70;;
4794;SDS011;2411;47.060;15.064;2024-03-17T06:28:14;0.60;;;0.60;;
4794;SDS011;2411;47.060;15.064;2024-03-17T06:30:42;1.00;;;1.00;;
4794;SDS011;2411;47.060;15.064;2024-03-17T06:33:12;1.00;;;0.90;;
4794;SDS011;2411;47.060;15.064;2024-03-17T06:35:39;1.10;;;0.97;;
4794;SDS011;2411;47.060;15.064;2024-03-17T06:38:05;1.00;;;1.00;;
4794;SDS011;2411;47.060;15.064;2024-03-17T06:40:35;1.10;;;1.10;;
4794;SDS011;2411;47.060;15.064;2024-03-17T06:43:02;1.00;;;0.90;;
4794;SDS011;2411;47.060;15.064;2024-03-17T06:45:28;0.77;;;0.77;;
4794;SDS011;2411;47.060;15.064;2024-03-17T06:47:54;0.77;;;0.77;;
4794;SDS011;2411;47.060;15.064;2024-03-17T06:50:21;0.60;;;0.60;;
4794;SDS011;2411;47.060;15.064;2024-03-17T06:52:47;0.93;;;0.80;;
4794;SDS011;2411;47.060;15.064;2024-03-17T06:55:13;0.60;;;0.60;;
4794;SDS011;2411;47.060;15.064;2024-03-17T06:57:43;0.70;;;0.70;;
4794;SDS011;2411;47.060;15.064;2024-03-17T07:00:09;1.17;;;0.60;;
4794;SDS011;2411;47.060;15.064;2024-03-17T07:02:43;0.63;;;0.63;;
4794;SDS011;2411;47.060;15.064;2024-03-17T07:05:13;0.70;;;0.70;;
4794;SDS011;2411;47.060;15.064;2024-03-17T07:07:42;0.63;;;0.63;;
4794;SDS011;2411;47.060;15.064;2024-03-17T07:10:09;0.70;;;0.70;;
4794;SDS011;2411;47.060;15.064;2024-03-17T07:12:37;0.70;;;0.70;;
4794;SDS011;2411;47.060;15.064;2024-03-17T07:15:07;0.70;;;0.70;;
4794;SDS011;2411;47.060;15.064;2024-03-17T07:17:34;0.60;;;0.60;;
4794;SDS011;2411;47.060;15.064;2024-03-17T07:20:00;1.80;;;0.80;;
4794;SDS011;2411;47.060;15.064;2024-03-17T07:22:27;1.77;;;1.30;;
4794;SDS011;2411;47.060;15.064;2024-03-17T07:24:54;2.20;;;1.80;;
4794;SDS011;2411;47.060;15.064;2024-03-17T07:27:25;1.67;;;1.50;;
4794;SDS011;2411;47.060;15.064;2024-03-17T07:29:52;1.37;;;0.87;;
4794;SDS011;2411;47.060;15.064;2024-03-17T07:32:18;0.87;;;0.83;;
4794;SDS011;2411;47.060;15.064;2024-03-17T07:34:44;0.80;;;0.70;;
4794;SDS011;2411;47.060;15.064;2024-03-17T07:37:10;1.10;;;1.00;;
4794;SDS011;2411;47.060;15.064;2024-03-17T07:39:36;0.87;;;0.83;;
4794;SDS011;2411;47.060;15.064;2024-03-17T07:42:02;0.60;;;0.60;;
4794;SDS011;2411;47.060;15.064;2024-03-17T07:44:28;0.90;;;0.77;;
4794;SDS011;2411;47.060;15.064;2024-03-17T07:46:59;1.47;;;0.70;;
4794;SDS011;2411;47.060;15.064;2024-03-17T07:49:25;0.93;;;0.60;;
4794;SDS011;2411;47.060;15.064;2024-03-17T07:51:51;1.00;;;0.90;;
4794;SDS011;2411;47.060;15.064;2024-03-17T07:54:17;0.90;;;0.90;;
4794;SDS011;2411;47.060;15.064;2024-03-17T07:56:45;1.47;;;0.80;;
4794;SDS011;2411;47.060;15.064;2024-03-17T07:59:11;1.70;;;0.70;;
4794;SDS011;2411;47.060;15.064;2024-03-17T08:01:41;0.87;;;0.70;;
4794;SDS011;2411;47.060;15.064;2024-03-17T08:04:07;0.70;;;0.70;;
4794;SDS011;2411;47.060;15.064;2024-03-17T08:06:33;1.63;;;0.80;;
4794;SDS011;2411;47.060;15.064;2024-03-17T08:08:59;0.83;;;0.50;;
4794;SDS011;2411;47.060;15.064;2024-03-17T08:11:26;7.27;;;0.60;;
4794;SDS011;2411;47.060;15.064;2024-03-17T08:13:52;0.60;;;0.57;;
4794;SDS011;2411;47.060;15.064;2024-03-17T08:16:19;0.60;;;0.60;;
4794;SDS011;2411;47.060;15.064;2024-03-17T08:18:45;1.30;;;0.63;;
4794;SDS011;2411;47.060;15.064;2024-03-17T08:21:11;0.70;;;0.70;;
4794;SDS011;2411;47.060;15.064;2024-03-17T08:23:37;0.50;;;0.50;;
4794;SDS011;2411;47.060;15.064;2024-03-17T08:26:11;1.00;;;1.00;;
4794;SDS011;2411;47.060;15.064;2024-03-17T08:28:37;0.60;;;0.40;;
4794;SDS011;2411;47.060;15.064;2024-03-17T08:31:03;0.60;;;0.60;;
4794;SDS011;2411;47.060;15.064;2024-03-17T08:33:30;0.50;;;0.50;;
4794;SDS011;2411;47.060;15.064;2024-03-17T08:35:58;0.40;;;0.40;;
4794;SDS011;2411;47.060;15.064;2024-03-17T08:38:25;0.50;;;0.50;;
4794;SDS011;2411;47.060;15.064;2024-03-17T08:40:53;0.57;;;0.57;;
4794;SDS011;2411;47.060;15.064;2024-03-17T08:43:20;0.93;;;0.50;;
4794;SDS011;2411;47.060;15.064;2024-03-17T08:45:57;1.07;;;0.40;;
4794;SDS011;2411;47.060;15.064;2024-03-17T08:48:26;0.87;;;0.50;;
4794;SDS011;2411;47.060;15.064;2024-03-17T08:50:54;0.80;;;0.70;;
4794;SDS011;2411;47.060;15.064;2024-03-17T08:53:21;2.77;;;1.10;;
4794;SDS011;2411;47.060;15.064;2024-03-17T08:55:47;3.53;;;0.60;;
4794;SDS011;2411;47.060;15.064;2024-03-17T08:58:13;0.40;;;0.40;;
4794;SDS011;2411;47.060;15.064;2024-03-17T09:00:41;0.57;;;0.50;;
4794;SDS011;2411;47.060;15.064;2024-03-17T09:03:10;1.23;;;0.50;;
4794;SDS011;2411;47.060;15.064;2024-03-17T09:05:37;0.70;;;0.50;;
4794;SDS011;2411;47.060;15.064;2024-03-17T09:08:05;0.43;;;0.43;;
4794;SDS011;2411;47.060;15.064;2024-03-17T09:10:41;0.57;;;0.57;;
4794;SDS011;2411;47.060;15.064;2024-03-17T09:13:14;1.23;;;0.70;;
4794;SDS011;2411;47.060;15.064;2024-03-17T09:15:58;0.60;;;0.60;;
4794;SDS011;2411;47.060;15.064;2024-03-17T09:18:28;0.60;;;0.60;;
4794;SDS011;2411;47.060;15.064;2024-03-17T09:21:05;0.50;;;0.50;;
4794;SDS011;2411;47.060;15.064;2024-03-17T09:23:33;0.40;;;0.40;;
4794;SDS011;2411;47.060;15.064;2024-03-17T09:28:31;0.57;;;0.57;;
4794;SDS011;2411;47.060;15.064;2024-03-17T09:30:58;0.40;;;0.40;;
4794;SDS011;2411;47.060;15.064;2024-03-17T09:33:25;0.50;;;0.50;;
4794;SDS011;2411;47.060;15.064;2024-03-17T09:35:59;0.40;;;0.40;;
4794;SDS011;2411;47.060;15.064;2024-03-17T09:38:31;0.50;;;0.50;;
4794;SDS011;2411;47.060;15.064;2024-03-17T09:40:58;0.70;;;0.70;;
4794;SDS011;2411;47.060;15.064;2024-03-17T09:43:30;0.70;;;0.70;;
4794;SDS011;2411;47.060;15.064;2024-03-17T09:45:58;0.50;;;0.50;;
4794;SDS011;2411;47.060;15.064;2024-03-17T09:48:27;0.40;;;0.40;;
4794;SDS011;2411;47.060;15.064;2024-03-17T09:50:55;0.50;;;0.50;;
4794;SDS011;2411;47.060;15.064;2024-03-17T09:53:25;0.50;;;0.50;;
4794;SDS011;2411;47.060;15.064;2024-03-17T09:55:52;0.50;;;0.50;;
4794;SDS011;2411;47.060;15.064;2024-03-17T09:58:22;0.53;;;0.53;;
4794;SDS011;2411;47.060;15.064;2024-03-17T10:00:48;0.90;;;0.60;;
4794;SDS011;2411;47.060;15.064;2024-03-17T10:03:38;0.47;;;0.47;;
4794;SDS011;2411;47.060;15.064;2024-03-17T10:06:13;0.40;;;0.40;;
4794;SDS011;2411;47.060;15.064;2024-03-17T10:08:59;1.53;;;0.57;;
4794;SDS011;2411;47.060;15.064;2024-03-17T10:11:33;0.90;;;0.70;;
4794;SDS011;2411;47.060;15.064;2024-03-17T10:14:04;0.53;;;0.53;;
4794;SDS011;2411;47.060;15.064;2024-03-17T10:16:33;1.30;;;0.60;;
4794;SDS011;2411;47.060;15.064;2024-03-17T10:21:36;0.93;;;0.50;;
4794;SDS011;2411;47.060;15.064;2024-03-17T10:24:20;0.50;;;0.50;;
4794;SDS011;2411;47.060;15.064;2024-03-17T10:29:20;0.90;;;0.60;;
4794;SDS011;2411;47.060;15.064;2024-03-17T10:31:57;0.50;;;0.50;;
4794;SDS011;2411;47.060;15.064;2024-03-17T10:34:29;0.60;;;0.50;;
4794;SDS011;2411;47.060;15.064;2024-03-17T10:37:19;0.50;;;0.50;;
4794;SDS011;2411;47.060;15.064;2024-03-17T10:39:50;2.30;;;0.60;;
4794;SDS011;2411;47.060;15.064;2024-03-17T10:42:22;0.50;;;0.50;;
4794;SDS011;2411;47.060;15.064;2024-03-17T10:44:57;0.70;;;0.47;;
4794;SDS011;2411;47.060;15.064;2024-03-17T10:47:26;0.50;;;0.50;;
4794;SDS011;2411;47.060;15.064;2024-03-17T10:49:54;0.67;;;0.67;;
4794;SDS011;2411;47.060;15.064;2024-03-17T10:52:21;0.70;;;0.70;;
4794;SDS011;2411;47.060;15.064;2024-03-17T10:54:54;0.60;;;0.60;;
4794;SDS011;2411;47.060;15.064;2024-03-17T11:00:05;0.50;;;0.50;;
4794;SDS011;2411;47.060;15.064;2024-03-17T11:02:34;1.20;;;0.50;;
4794;SDS011;2411;47.060;15.064;2024-03-17T11:05:02;1.03;;;0.40;;
4794;SDS011;2411;47.060;15.064;2024-03-17T11:07:38;1.03;;;0.50;;
4794;SDS011;2411;47.060;15.064;2024-03-17T11:10:21;0.70;;;0.50;;
4794;SDS011;2411;47.060;15.064;2024-03-17T11:12:55;0.43;;;0.43;;
4794;SDS011;2411;47.060;15.064;2024-03-17T11:18:40;0.50;;;0.50;;
4794;SDS011;2411;47.060;15.064;2024-03-17T11:23:37;0.60;;;0.50;;
4794;SDS011;2411;47.060;15.064;2024-03-17T11:26:04;0.67;;;0.40;;
4794;SDS011;2411;47.060;15.064;2024-03-17T11:33:55;0.70;;;0.40;;
4794;SDS011;2411;47.060;15.064;2024-03-17T11:38:52;0.50;;;0.50;;
4794;SDS011;2411;47.060;15.064;2024-03-17T11:41:35;0.63;;;0.60;;
4794;SDS011;2411;47.060;15.064;2024-03-17T11:46:50;0.50;;;0.50;;
4794;SDS011;2411;47.060;15.064;2024-03-17T11:49:25;0.40;;;0.40;;
4794;SDS011;2411;47.060;15.064;2024-03-17T11:51:54;0.70;;;0.50;;
4794;SDS011;2411;47.060;15.064;2024-03-17T11:54:25;0.50;;;0.50;;
4794;SDS011;2411;47.060;15.064;2024-03-17T11:57:40;1.07;;;0.50;;
4794;SDS011;2411;47.060;15.064;2024-03-17T11:59:52;0.53;;;0.50;;
4794;SDS011;2411;47.060;15.064;2024-03-17T12:02:21;0.60;;;0.50;;
4794;SDS011;2411;47.060;15.064;2024-03-17T12:04:52;0.40;;;0.40;;
4794;SDS011;2411;47.060;15.064;2024-03-17T12:07:22;1.67;;;0.50;;
4794;SDS011;2411;47.060;15.064;2024-03-17T12:09:49;0.50;;;0.50;;
4794;SDS011;2411;47.060;15.064;2024-03-17T12:12:20;0.50;;;0.50;;
4794;SDS011;2411;47.060;15.064;2024-03-17T12:14:48;0.47;;;0.40;;
4794;SDS011;2411;47.060;15.064;2024-03-17T12:17:19;0.40;;;0.40;;
4794;SDS011;2411;47.060;15.064;2024-03-17T12:19:46;0.40;;;0.40;;
4794;SDS011;2411;47.060;15.064;2024-03-17T12:22:17;0.67;;;0.50;;
4794;SDS011;2411;47.060;15.064;2024-03-17T12:24:53;0.60;;;0.60;;
4794;SDS011;2411;47.060;15.064;2024-03-17T12:27:21;0.60;;;0.50;;
4794;SDS011;2411;47.060;15.064;2024-03-17T12:29:49;0.60;;;0.60;;
4794;SDS011;2411;47.060;15.064;2024-03-17T12:34:44;0.60;;;0.53;;
4794;SDS011;2411;47.060;15.064;2024-03-17T12:37:21;1.07;;;0.60;;
4794;SDS011;2411;47.060;15.064;2024-03-17T12:39:53;0.50;;;0.47;;
4794;SDS011;2411;47.060;15.064;2024-03-17T12:42:23;0.40;;;0.40;;
4794;SDS011;2411;47.060;15.064;2024-03-17T12:44:50;0.50;;;0.40;;
4794;SDS011;2411;47.060;15.064;2024-03-17T12:49:52;0.50;;;0.40;;
4794;SDS011;2411;47.060;15.064;2024-03-17T12:52:22;0.60;;;0.60;;
4794;SDS011;2411;47.060;15.064;2024-03-17T12:54:56;0.50;;;0.50;;
4794;SDS011;2411;47.060;15.064;2024-03-17T12:57:42;0.50;;;0.43;;
4794;SDS011;2411;47.060;15.064;2024-03-17T13:00:31;0.50;;;0.50;;
4794;SDS011;2411;47.060;15.064;2024-03-17T13:03:01;3.23;;;0.50;;
4794;SDS011;2411;47.060;15.064;2024-03-17T13:05:34;0.57;;;0.57;;
4794;SDS011;2411;47.060;15.064;2024-03-17T13:08:02;0.40;;;0.40;;
4794;SDS011;2411;47.060;15.064;2024-03-17T13:10:30;0.43;;;0.43;;
4794;SDS011;2411;47.060;15.064;2024-03-17T13:13:03;0.77;;;0.77;;
4794;SDS011;2411;47.060;15.064;2024-03-17T13:15:31;1.40;;;0.90;;
4794;SDS011;2411;47.060;15.064;2024-03-17T13:18:07;0.50;;;0.50;;
4794;SDS011;2411;47.060;15.064;2024-03-17T13:20:33;1.70;;;0.50;;
4794;SDS011;2411;47.060;15.064;2024-03-17T13:23:00;0.43;;;0.43;;
4794;SDS011;2411;47.060;15.064;2024-03-17T13:25:27;0.60;;;0.60;;
4794;SDS011;2411;47.060;15.064;2024-03-17T13:28:02;0.57;;;0.57;;
4794;SDS011;2411;47.060;15.064;2024-03-17T13:30:29;0.53;;;0.53;;
4794;SDS011;2411;47.060;15.064;2024-03-17T13:32:58;0.50;;;0.50;;
4794;SDS011;2411;47.060;15.064;2024-03-17T13:35:25;1.80;;;0.73;;
4794;SDS011;2411;47.060;15.064;2024-03-17T13:37:53;2.10;;;0.60;;
4794;SDS011;2411;47.060;15.064;2024-03-17T13:40:19;0.60;;;0.50;;
4794;SDS011;2411;47.060;15.064;2024-03-17T13:42:47;2.43;;;1.20;;
4794;SDS011;2411;47.060;15.064;2024-03-17T13:45:15;1.40;;;1.30;;
4794;SDS011;2411;47.060;15.064;2024-03-17T13:47:45;1.23;;;0.60;;
4794;SDS011;2411;47.060;15.064;2024-03-17T13:50:41;0.50;;;0.50;;
4794;SDS011;2411;47.060;15.064;2024-03-17T13:53:12;0.60;;;0.60;;
4794;SDS011;2411;47.060;15.064;2024-03-17T13:55:38;0.60;;;0.60;;
4794;SDS011;2411;47.060;15.064;2024-03-17T13:58:04;1.17;;;0.60;;
4794;SDS011;2411;47.060;15.064;2024-03-17T14:00:31;0.87;;;0.87;;
4794;SDS011;2411;47.060;15.064;2024-03-17T14:03:01;1.90;;;1.57;;
4794;SDS011;2411;47.060;15.064;2024-03-17T14:05:27;1.50;;;0.70;;
4794;SDS011;2411;47.060;15.064;2024-03-17T14:07:54;1.03;;;1.00;;
4794;SDS011;2411;47.060;15.064;2024-03-17T14:10:21;1.43;;;0.80;;
4794;SDS011;2411;47.060;15.064;2024-03-17T14:12:48;0.67;;;0.67;;
4794;SDS011;2411;47.060;15.064;2024-03-17T14:15:15;1.10;;;1.00;;
4794;SDS011;2411;47.060;15.064;2024-03-17T14:17:42;0.83;;;0.63;;
4794;SDS011;2411;47.060;15.064;2024-03-17T14:20:12;0.90;;;0.70;;
4794;SDS011;2411;47.060;15.064;2024-03-17T14:22:39;0.70;;;0.70;;
4794;SDS011;2411;47.060;15.064;2024-03-17T14:25:10;2.87;;;1.53;;
4794;SDS011;2411;47.060;15.064;2024-03-17T14:27:42;1.40;;;1.30;;
4794;SDS011;2411;47.060;15.064;2024-03-17T14:30:08;0.90;;;0.90;;
4794;SDS011;2411;47.060;15.064;2024-03-17T14:32:38;0.80;;;0.80;;
4794;SDS011;2411;47.060;15.064;2024-03-17T14:35:04;0.73;;;0.73;;
4794;SDS011;2411;47.060;15.064;2024-03-17T14:37:31;0.70;;;0.70;;
4794;SDS011;2411;47.060;15.064;2024-03-17T14:39:58;0.90;;;0.90;;
4794;SDS011;2411;47.060;15.064;2024-03-17T14:42:25;0.83;;;0.83;;
4794;SDS011;2411;47.060;15.064;2024-03-17T14:44:51;1.03;;;0.90;;
4794;SDS011;2411;47.060;15.064;2024-03-17T14:47:17;0.77;;;0.77;;
4794;SDS011;2411;47.060;15.064;2024-03-17T14:49:43;0.80;;;0.80;;
4794;SDS011;2411;47.060;15.064;2024-03-17T14:52:10;0.90;;;0.90;;
4794;SDS011;2411;47.060;15.064;2024-03-17T14:54:36;1.90;;;1.00;;
4794;SDS011;2411;47.060;15.064;2024-03-17T14:57:02;0.90;;;0.90;;
4794;SDS011;2411;47.060;15.064;2024-03-17T14:59:28;1.60;;;1.50;;
4794;SDS011;2411;47.060;15.064;2024-03-17T15:01:54;1.90;;;1.20;;
4794;SDS011;2411;47.060;15.064;2024-03-17T15:04:20;1.40;;;1.10;;
4794;SDS011;2411;47.060;15.064;2024-03-17T15:06:46;0.97;;;0.97;;
4794;SDS011;2411;47.060;15.064;2024-03-17T15:09:12;1.50;;;0.77;;
4794;SDS011;2411;47.060;15.064;2024-03-17T15:11:38;0.97;;;0.97;;
4794;SDS011;2411;47.060;15.064;2024-03-17T15:14:05;0.90;;;0.90;;
4794;SDS011;2411;47.060;15.064;2024-03-17T15:16:36;1.70;;;1.60;;
4794;SDS011;2411;47.060;15.064;2024-03-17T15:19:04;1.47;;;1.37;;
4794;SDS011;2411;47.060;15.064;2024-03-17T15:21:32;1.40;;;1.07;;
4794;SDS011;2411;47.060;15.064;2024-03-17T15:23:58;1.23;;;1.13;;
4794;SDS011;2411;47.060;15.064;2024-03-17T15:26:25;1.30;;;1.20;;
4794;SDS011;2411;47.060;15.064;2024-03-17T15:28:52;1.23;;;1.17;;
4794;SDS011;2411;47.060;15.064;2024-03-17T15:31:18;1.33;;;1.27;;
4794;SDS011;2411;47.060;15.064;2024-03-17T15:33:46;0.80;;;0.80;;
4794;SDS011;2411;47.060;15.064;2024-03-17T15:36:14;1.10;;;1.10;;
4794;SDS011;2411;47.060;15.064;2024-03-17T15:38:40;1.70;;;1.20;;
4794;SDS011;2411;47.060;15.064;2024-03-17T15:41:06;1.40;;;1.27;;
4794;SDS011;2411;47.060;15.064;2024-03-17T15:43:36;3.00;;;1.30;;